High Bentham, United Kingdom
Current Conditions -  °F | °C
As of 1:50 PM on Wednesday 26 Nov 2014 (Local Time) from EGNO Reporting Station
Broken Clouds Broken Clouds  
Wind Chill: 44°   Ceiling: 2900
Heat Index: 46°   Visibility: 5mi
Dew Point: 45°   Wind: 6mph
Humidity: 93%   Direction: 70°ENE
Pressure: 29.85"   Gusts: NA
Location:  54.12°N, 2.51°W
Report Text: EGNO 261350Z 07005KT 8000 SCT018 BKN029 08/07 Q1011
Loading
Personal Weather Stations






























Interactive Weather Map New forecast layout! Learn more

10-Day Weather Forecast

Advertisements
Track Severe Weather on mobile